Time;durP1;ratioP1;P1;durP2;ratioP2;P2;SDS_P1;SDS_P2;PMS_P1;PMS_P2;Temp;Humidity;BMP_temperature;BMP_pressure;BME280_temperature;BME280_humidity;BME280_pressure;Samples;Min_cycle;Max_cycle;Signal;HPM_P1;HPM_P2
2022/09/19 00:01:15;;;;;;;;;;;;;;;10.56;100.00;97287.99;1702139;82;20253;-89
2022/09/19 00:03:57;;;;;;;;;;;;;;;10.57;100.00;97288.34;1717752;82;26024;-90
2022/09/19 00:06:27;;;;;;;;;;;;;;;10.57;100.00;97288.34;1716486;82;25179;-90
2022/09/19 00:08:55;;;;;;;;;;;;;;;10.57;100.00;97287.04;1715823;82;20235;-89
2022/09/19 00:11:21;;;;;;;;;;;;;;;10.57;100.00;97289.66;1720749;82;25971;-89
2022/09/19 00:13:48;;;;;;;;;;;;;;;10.51;100.00;97307.19;1719622;82;22037;-90
2022/09/19 00:16:21;;;;;;;;;;;;;;;10.45;100.00;97305.46;1719845;82;26226;-90
2022/09/19 00:18:48;;;;;;;;;;;;;;;10.36;100.00;97311.98;1710755;82;24427;-90
2022/09/19 00:21:24;;;;;;;;;;;;;;;10.28;100.00;97313.94;1718973;83;20226;-90
2022/09/19 00:26:34;;;;;;;;;;;;;;;10.26;100.00;97312.40;1692666;83;21985;-89
2022/09/19 00:29:00;;;;;;;;;;;;;;;10.20;100.00;97319.50;1696044;83;25949;-90
2022/09/19 00:31:27;;;;;;;;;;;;;;;10.15;100.00;97319.83;1693371;83;20257;-89
2022/09/19 00:34:00;;;;;;;;;;;;;;;10.14;100.00;97322.60;1692081;83;20219;-88
2022/09/19 00:36:27;;;;;;;;;;;;;;;10.11;100.00;97321.53;1719686;82;25706;-89
2022/09/19 00:38:55;;;;;;;;;;;;;;;10.16;100.00;97320.66;1693427;83;22841;-89
2022/09/19 00:41:25;;;;;;;;;;;;;;;10.19;100.00;97313.44;1694629;83;26096;-90
2022/09/19 00:43:52;;;;;;;;;;;;;;;10.20;100.00;97318.98;1693963;83;24649;-88
2022/09/19 00:46:18;;;;;;;;;;;;;;;10.21;100.00;97321.95;1694374;83;20263;-90
2022/09/19 00:48:46;;;;;;;;;;;;;;;10.23;100.00;97320.52;1694476;83;25810;-89
2022/09/19 00:51:18;;;;;;;;;;;;;;;10.26;100.00;97321.08;1691099;84;21936;-90
2022/09/19 00:53:45;;;;;;;;;;;;;;;10.23;100.00;97319.22;1695143;84;26028;-90
2022/09/19 00:56:12;;;;;;;;;;;;;;;10.20;100.00;97326.83;1693692;84;25378;-89
2022/09/19 00:58:40;;;;;;;;;;;;;;;10.18;100.00;97327.94;1712402;83;20209;-89
2022/09/19 01:01:06;;;;;;;;;;;;;;;10.22;100.00;97327.53;1704198;84;25037;-89
2022/09/19 01:03:33;;;;;;;;;;;;;;;10.23;100.00;97330.98;1702715;82;22748;-90
2022/09/19 01:06:07;;;;;;;;;;;;;;;10.22;100.00;97324.92;1696299;84;26711;-89
2022/09/19 01:08:35;;;;;;;;;;;;;;;10.14;100.00;97314.76;1680649;84;39159;-89
2022/09/19 01:11:06;;;;;;;;;;;;;;;10.18;100.00;97328.77;1696236;83;20356;-90
2022/09/19 01:13:37;;;;;;;;;;;;;;;10.19;100.00;97323.89;1684179;84;26307;-90
2022/09/19 01:16:20;;;;;;;;;;;;;;;10.22;100.00;97323.62;1697133;83;22012;-90
2022/09/19 01:19:02;;;;;;;;;;;;;;;10.23;100.00;97322.66;1674231;84;25431;-90
2022/09/19 01:21:41;;;;;;;;;;;;;;;10.25;100.00;97322.06;1676307;84;25044;-90
2022/09/19 01:24:20;;;;;;;;;;;;;;;10.29;100.00;97320.00;1666825;83;20436;-89
2022/09/19 01:27:07;;;;;;;;;;;;;;;10.29;100.00;97319.52;1659167;84;25152;-90
2022/09/19 01:29:40;;;;;;;;;;;;;;;10.26;100.00;97317.63;1678651;84;22783;-90
2022/09/19 01:32:14;;;;;;;;;;;;;;;10.27;100.00;97324.52;1675404;84;26779;-90
2022/09/19 01:34:50;;;;;;;;;;;;;;;10.28;100.00;97324.40;1666016;84;24604;-89
2022/09/19 01:37:22;;;;;;;;;;;;;;;10.29;100.00;97327.84;1683038;85;20290;-90
2022/09/19 01:39:50;;;;;;;;;;;;;;;10.31;100.00;97317.58;1723163;83;25105;-90
2022/09/19 01:42:20;;;;;;;;;;;;;;;10.31;100.00;97326.73;1704172;84;22080;-90
2022/09/19 01:44:48;;;;;;;;;;;;;;;10.32;100.00;97332.80;1692574;84;26056;-89
2022/09/19 01:47:36;;;;;;;;;;;;;;;10.30;100.00;97334.25;1699598;83;24508;-89
2022/09/19 01:50:03;;;;;;;;;;;;;;;10.30;100.00;97329.50;1699412;83;20162;-89
2022/09/19 01:52:35;;;;;;;;;;;;;;;10.26;100.00;97331.53;1702716;83;25265;-89
2022/09/19 01:55:08;;;;;;;;;;;;;;;10.22;100.00;97340.61;1719934;82;22742;-89
2022/09/19 01:57:52;;;;;;;;;;;;;;;10.20;100.00;97338.59;1685360;83;26158;-90
2022/09/19 02:00:21;;;;;;;;;;;;;;;10.18;100.00;97341.01;1687156;84;25292;-90
2022/09/19 02:02:49;;;;;;;;;;;;;;;10.14;100.00;97339.11;1686726;82;20186;-89
2022/09/19 02:05:23;;;;;;;;;;;;;;;10.07;100.00;97341.89;1686401;84;25736;-89
2022/09/19 02:08:00;;;;;;;;;;;;;;;10.07;100.00;97343.20;1686453;84;22655;-89
2022/09/19 02:10:33;;;;;;;;;;;;;;;10.04;100.00;97348.67;1682859;84;26896;-89
2022/09/19 02:13:04;;;;;;;;;;;;;;;10.00;100.00;97341.58;1686629;84;24533;-88
2022/09/19 02:15:32;;;;;;;;;;;;;;;10.00;100.00;97344.20;1690163;84;20342;-88
2022/09/19 02:18:04;;;;;;;;;;;;;;;9.97;100.00;97348.87;1669460;84;25798;-89
2022/09/19 02:20:38;;;;;;;;;;;;;;;9.95;100.00;97354.69;1703657;83;22140;-85
2022/09/19 02:23:06;;;;;;;;;;;;;;;9.98;100.00;97354.45;1707107;82;26830;-85
2022/09/19 02:25:35;;;;;;;;;;;;;;;9.98;100.00;97355.75;1706475;83;25220;-85
2022/09/19 02:28:06;;;;;;;;;;;;;;;9.97;100.00;97354.92;1702484;82;20194;-85
2022/09/19 02:30:32;;;;;;;;;;;;;;;9.97;100.00;97356.70;1696483;83;25051;-85
2022/09/19 02:33:00;;;;;;;;;;;;;;;9.95;100.00;97358.14;1719931;81;21948;-86
2022/09/19 02:35:34;;;;;;;;;;;;;;;9.94;100.00;97360.39;1706253;83;26080;-85
2022/09/19 02:38:05;;;;;;;;;;;;;;;9.93;100.00;97361.82;1701033;83;25771;-85
2022/09/19 02:40:41;;;;;;;;;;;;;;;9.92;100.00;97365.42;1699752;83;20279;-85
2022/09/19 02:43:14;;;;;;;;;;;;;;;9.90;100.00;97367.32;1697715;83;25819;-85
2022/09/19 02:45:43;;;;;;;;;;;;;;;9.89;100.00;97368.27;1649169;85;22160;-85
2022/09/19 02:48:16;;;;;;;;;;;;;;;9.88;100.00;97366.61;1707046;82;25945;-85
2022/09/19 02:50:44;;;;;;;;;;;;;;;9.88;100.00;97364.83;1701578;83;24720;-85
2022/09/19 02:53:12;;;;;;;;;;;;;;;9.88;100.00;97364.83;1692985;83;20311;-86
2022/09/19 02:55:47;;;;;;;;;;;;;;;9.89;100.00;97368.27;1724812;82;24992;-85
2022/09/19 02:58:15;;;;;;;;;;;;;;;9.91;100.00;97359.83;1699979;83;21934;-86
2022/09/19 03:00:43;;;;;;;;;;;;;;;9.94;100.00;97359.56;1719085;82;25989;-86
2022/09/19 03:06:00;;;;;;;;;;;;;;;9.90;100.00;97356.86;1720166;82;20563;-85
2022/09/19 03:08:28;;;;;;;;;;;;;;;9.92;100.00;97363.63;1738888;81;24949;-85
2022/09/19 03:10:56;;;;;;;;;;;;;;;9.92;100.00;97368.86;1733603;82;22148;-86
2022/09/19 03:13:24;;;;;;;;;;;;;;;9.90;100.00;97355.56;1718253;82;26073;-86
2022/09/19 03:15:53;;;;;;;;;;;;;;;9.89;100.00;97363.05;1718848;82;25268;-86
2022/09/19 03:18:21;;;;;;;;;;;;;;;9.83;100.00;97364.38;1704212;83;20468;-86
2022/09/19 03:20:54;;;;;;;;;;;;;;;9.84;100.00;97371.75;1712348;83;25811;-86
2022/09/19 03:23:25;;;;;;;;;;;;;;;9.84;100.00;97367.35;1728860;82;22141;-86
2022/09/19 03:25:49;;;;;;;;;;;;;;;9.86;100.00;97365.93;1728452;81;26152;-86
2022/09/19 03:28:19;;;;;;;;;;;;;;;9.88;100.00;97366.61;1733980;82;20230;-86
2022/09/19 03:30:43;;;;;;;;;;;;;;;9.88;100.00;97372.66;1720583;82;20437;-86
2022/09/19 03:33:11;;;;;;;;;;;;;;;9.89;100.00;97359.13;1726468;82;20823;-85
2022/09/19 03:35:38;;;;;;;;;;;;;;;9.91;100.00;97360.66;1728920;82;22021;-86
2022/09/19 03:38:16;;;;;;;;;;;;;;;9.96;100.00;97368.11;1726072;82;26009;-85
2022/09/19 03:40:42;;;;;;;;;;;;;;;9.97;100.00;97359.32;1734995;82;24382;-85
2022/09/19 03:43:11;;;;;;;;;;;;;;;9.98;100.00;97358.37;1727971;82;20436;-85
2022/09/19 03:45:43;;;;;;;;;;;;;;;9.97;100.00;97359.32;1728349;82;25186;-85
2022/09/19 03:48:09;;;;;;;;;;;;;;;9.97;100.00;97355.40;1720755;82;21992;-85
2022/09/19 03:50:35;;;;;;;;;;;;;;;9.97;100.00;97360.62;1707691;82;20968;-85
2022/09/19 03:53:07;;;;;;;;;;;;;;;9.97;100.00;97360.16;1699492;82;20393;-85
2022/09/19 03:55:36;;;;;;;;;;;;;;;9.97;100.00;97365.38;1696873;83;20287;-85
2022/09/19 03:58:02;;;;;;;;;;;;;;;9.98;100.00;97364.39;1702237;83;25120;-85
2022/09/19 04:00:28;;;;;;;;;;;;;;;9.98;100.00;97360.98;1690428;83;20219;-86
2022/09/19 04:02:56;;;;;;;;;;;;;;;9.98;100.00;97368.83;1693429;82;26024;-86
2022/09/19 04:05:23;;;;;;;;;;;;;;;9.96;100.00;97372.86;1698082;82;25231;-86
2022/09/19 04:07:50;;;;;;;;;;;;;;;9.94;100.00;97370.02;1697416;82;20540;-86
2022/09/19 04:10:16;;;;;;;;;;;;;;;9.94;100.00;97374.77;1700261;83;24981;-85
2022/09/19 04:12:44;;;;;;;;;;;;;;;9.91;100.00;97377.66;1697692;83;20869;-85
2022/09/19 04:15:10;;;;;;;;;;;;;;;9.91;100.00;97383.35;1713658;82;26114;-85
2022/09/19 04:17:36;;;;;;;;;;;;;;;9.87;100.00;97384.58;1709476;83;25331;-85
2022/09/19 04:20:03;;;;;;;;;;;;;;;9.84;100.00;97382.20;1714960;82;20294;-85
2022/09/19 04:22:28;;;;;;;;;;;;;;;9.82;100.00;97385.44;1685124;83;24835;-86
2022/09/19 04:25:04;;;;;;;;;;;;;;;9.80;100.00;97386.03;1687325;83;20580;-86
2022/09/19 04:27:30;;;;;;;;;;;;;;;9.78;100.00;97386.63;1710685;82;26020;-86
2022/09/19 04:29:56;;;;;;;;;;;;;;;9.75;100.00;97385.11;1707971;81;20971;-86
2022/09/19 04:32:22;;;;;;;;;;;;;;;9.73;100.00;97386.19;1710597;82;20227;-86
2022/09/19 04:34:49;;;;;;;;;;;;;;;9.69;100.00;97388.23;1710176;83;24940;-86
2022/09/19 04:37:17;;;;;;;;;;;;;;;9.68;100.00;97390.48;1709490;82;22008;-85
2022/09/19 04:39:48;;;;;;;;;;;;;;;9.71;100.00;97394.64;1706298;83;20944;-85
2022/09/19 04:42:12;;;;;;;;;;;;;;;9.69;100.00;97401.30;1711364;82;24450;-86
2022/09/19 04:44:47;;;;;;;;;;;;;;;9.70;100.00;97404.74;1711805;81;20365;-86
2022/09/19 04:47:14;;;;;;;;;;;;;;;9.68;100.00;97399.63;1720433;82;25189;-86
2022/09/19 04:49:40;;;;;;;;;;;;;;;9.67;100.00;97397.97;1716752;82;23005;-88
2022/09/19 04:52:13;;;;;;;;;;;;;;;9.62;100.00;97403.58;1697911;83;21082;-89
2022/09/19 04:54:40;;;;;;;;;;;;;;;9.65;100.00;97404.62;1688327;85;24474;-88
2022/09/19 04:57:07;;;;;;;;;;;;;;;9.67;100.00;97399.28;1688132;85;20501;-87
2022/09/19 04:59:35;;;;;;;;;;;;;;;9.65;100.00;97397.28;1688043;84;24959;-87
2022/09/19 05:02:08;;;;;;;;;;;;;;;9.68;100.00;97406.64;1690055;84;22987;-87
2022/09/19 05:04:41;;;;;;;;;;;;;;;9.66;100.00;97406.28;1687387;85;26204;-86
2022/09/19 05:07:09;;;;;;;;;;;;;;;9.69;100.00;97410.44;1688635;84;24653;-87
2022/09/19 05:09:36;;;;;;;;;;;;;;;9.68;100.00;97407.95;1689823;84;20168;-87
2022/09/19 05:12:03;;;;;;;;;;;;;;;9.70;100.00;97413.88;1673406;85;25027;-86
2022/09/19 05:14:30;;;;;;;;;;;;;;;9.70;100.00;97417.80;1673557;85;22054;-86
2022/09/19 05:17:00;;;;;;;;;;;;;;;9.69;100.00;97422.20;1687645;85;26178;-86
2022/09/19 05:19:27;;;;;;;;;;;;;;;9.70;100.00;97429.56;1688604;85;24394;-86
2022/09/19 05:21:53;;;;;;;;;;;;;;;9.72;100.00;97430.24;1685660;83;20233;-86
2022/09/19 05:24:19;;;;;;;;;;;;;;;9.73;100.00;97434.05;1675897;85;25166;-86
2022/09/19 05:26:45;;;;;;;;;;;;;;;9.73;100.00;97437.12;1674915;85;20354;-86
2022/09/19 05:29:16;;;;;;;;;;;;;;;9.73;100.00;97443.66;1676737;85;26056;-86
2022/09/19 05:31:46;;;;;;;;;;;;;;;9.72;100.00;97438.91;1672487;84;24429;-87
2022/09/19 05:34:13;;;;;;;;;;;;;;;9.74;100.00;97441.41;1671004;85;20310;-87
2022/09/19 05:36:47;;;;;;;;;;;;;;;9.75;100.00;97444.38;1643756;85;24988;-87
2022/09/19 05:39:12;;;;;;;;;;;;;;;9.76;100.00;97448.17;1698941;84;22121;-87
2022/09/19 05:41:40;;;;;;;;;;;;;;;9.78;100.00;97452.78;1666035;86;21693;-87
2022/09/19 05:44:06;;;;;;;;;;;;;;;9.82;100.00;97452.07;1697486;83;24433;-87
2022/09/19 05:46:32;;;;;;;;;;;;;;;9.85;100.00;97457.03;1696132;83;20246;-87
2022/09/19 05:49:01;;;;;;;;;;;;;;;9.87;100.00;97456.44;1698715;83;20755;-90
2022/09/19 05:51:27;;;;;;;;;;;;;;;9.89;100.00;97464.48;1701969;81;22221;-88
2022/09/19 05:54:00;;;;;;;;;;;;;;;9.90;100.00;97462.70;1718975;82;20925;-88
2022/09/19 05:56:26;;;;;;;;;;;;;;;9.89;100.00;97458.42;1720296;82;24350;-89
2022/09/19 05:58:53;;;;;;;;;;;;;;;9.87;100.00;97460.36;1713012;82;20299;-89
2022/09/19 06:01:20;;;;;;;;;;;;;;;9.87;100.00;97462.47;1704124;82;25618;-89
2022/09/19 06:03:46;;;;;;;;;;;;;;;9.85;100.00;97463.09;1727485;82;22063;-90
2022/09/19 06:06:14;;;;;;;;;;;;;;;9.86;100.00;97468.67;1715787;82;26259;-89
2022/09/19 06:08:42;;;;;;;;;;;;;;;9.87;100.00;97470.30;1727207;81;24438;-90
2022/09/19 06:11:08;;;;;;;;;;;;;;;9.88;100.00;97473.27;1729988;82;20590;-89
2022/09/19 06:16:20;;;;;;;;;;;;;;;9.89;100.00;97479.34;1687008;84;22146;-89
2022/09/19 06:18:46;;;;;;;;;;;;;;;9.88;100.00;97488.13;1688758;84;25994;-89
2022/09/19 06:21:12;;;;;;;;;;;;;;;9.89;100.00;97485.39;1692912;83;20927;-87
2022/09/19 06:23:41;;;;;;;;;;;;;;;9.88;100.00;97488.95;1714513;82;20275;-89
2022/09/19 06:26:07;;;;;;;;;;;;;;;9.89;100.00;97489.78;1726959;82;25527;-89
2022/09/19 06:28:34;;;;;;;;;;;;;;;9.91;100.00;97490.50;1719879;83;22174;-88
2022/09/19 06:31:03;;;;;;;;;;;;;;;9.93;100.00;97490.71;1712401;82;26607;-88
2022/09/19 06:33:30;;;;;;;;;;;;;;;9.94;100.00;97491.06;1703230;83;24429;-89
2022/09/19 06:35:58;;;;;;;;;;;;;;;9.95;100.00;97491.42;1734295;81;20337;-88
2022/09/19 06:38:25;;;;;;;;;;;;;;;10.03;100.00;97494.73;1730407;82;24950;-88
2022/09/19 06:40:55;;;;;;;;;;;;;;;10.12;100.00;97495.27;1720155;82;22039;-89
2022/09/19 06:43:26;;;;;;;;;;;;;;;10.19;100.00;97499.54;1701764;82;26657;-88
2022/09/19 06:45:52;;;;;;;;;;;;;;;10.24;100.00;97499.98;1726306;81;24524;-89
2022/09/19 06:48:22;;;;;;;;;;;;;;;10.27;100.00;97499.24;1691973;84;20483;-89
2022/09/19 06:50:48;;;;;;;;;;;;;;;10.29;100.00;97496.50;1689416;85;25007;-88
2022/09/19 06:53:17;;;;;;;;;;;;;;;10.26;100.00;97498.88;1720416;82;22628;-88
2022/09/19 06:55:46;;;;;;;;;;;;;;;10.28;100.00;97509.23;1720854;82;26002;-88
2022/09/19 06:58:13;;;;;;;;;;;;;;;10.29;100.00;97506.49;1705935;82;24428;-88
2022/09/19 07:00:44;;;;;;;;;;;;;;;10.34;100.00;97512.16;1730454;82;20263;-88
2022/09/19 07:03:17;;;;;;;;;;;;;;;10.41;100.00;97516.41;1733788;82;24385;-89
2022/09/19 07:05:44;;;;;;;;;;;;;;;10.45;100.00;97516.02;1733706;82;21975;-88
2022/09/19 07:08:19;;;;;;;;;;;;;;;10.50;100.00;97516.94;1726116;82;25959;-88
2022/09/19 07:10:45;;;;;;;;;;;;;;;10.47;100.00;97512.78;1715953;82;24612;-89
2022/09/19 07:13:19;;;;;;;;;;;;;;;10.44;100.00;97523.51;1729516;82;20485;-86
2022/09/19 07:15:41;;;;;;;;;;;;;;;10.46;100.00;97522.08;1727296;82;25060;-87
2022/09/19 07:18:12;;;;;;;;;;;;;;;10.47;100.00;97523.23;1726728;82;21845;-88
2022/09/19 07:20:37;;;;;;;;;;;;;;;10.44;100.00;97523.98;1728937;82;25427;-88
2022/09/19 07:23:04;;;;;;;;;;;;;;;10.44;100.00;97527.44;1724581;82;24430;-88
2022/09/19 07:25:32;;;;;;;;;;;;;;;10.45;100.00;97532.19;1729807;82;20184;-88
2022/09/19 07:27:58;;;;;;;;;;;;;;;10.47;100.00;97531.59;1730634;82;25065;-88
2022/09/19 07:30:35;;;;;;;;;;;;;;;10.52;100.00;97531.20;1727416;82;22045;-89
2022/09/19 07:33:15;;;;;;;;;;;;;;;10.54;100.00;97530.58;1729591;82;26195;-87
2022/09/19 07:35:43;;;;;;;;;;;;;;;10.58;100.00;97538.54;1720286;82;25386;-87
2022/09/19 07:38:11;;;;;;;;;;;;;;;10.63;100.00;97537.20;1727035;82;20231;-85
2022/09/19 07:40:37;;;;;;;;;;;;;;;10.70;100.00;97544.86;1734596;81;25887;-86
2022/09/19 07:43:05;;;;;;;;;;;;;;;10.75;100.00;97542.67;1730091;82;20774;-86
2022/09/19 07:45:35;;;;;;;;;;;;;;;10.79;100.00;97544.09;1731227;82;25891;-86
2022/09/19 07:48:01;;;;;;;;;;;;;;;10.85;100.00;97545.37;1725867;82;24530;-85
2022/09/19 07:50:31;;;;;;;;;;;;;;;10.90;100.00;97551.87;1709389;82;20274;-86
2022/09/19 07:53:05;;;;;;;;;;;;;;;10.98;100.00;97550.36;1714609;82;25135;-86
2022/09/19 07:55:35;;;;;;;;;;;;;;;11.05;100.00;97544.48;1710949;82;22095;-89
2022/09/19 07:58:05;;;;;;;;;;;;;;;11.14;100.00;97542.38;1733825;82;26016;-89
2022/09/19 08:00:35;;;;;;;;;;;;;;;11.17;100.00;97536.05;1729388;82;24427;-89
2022/09/19 08:03:03;;;;;;;;;;;;;;;11.21;100.00;97539.58;1728762;82;20298;-89
2022/09/19 08:05:32;;;;;;;;;;;;;;;11.24;100.00;97545.02;1727861;82;25164;-88
2022/09/19 08:07:58;;;;;;;;;;;;;;;11.21;100.00;97544.82;1699890;83;21965;-88
2022/09/19 08:10:24;;;;;;;;;;;;;;;11.18;100.00;97548.20;1717463;82;21119;-88
2022/09/19 08:12:50;;;;;;;;;;;;;;;11.10;100.00;97548.84;1722583;82;20250;-88
2022/09/19 08:15:19;;;;;;;;;;;;;;;11.01;100.00;97552.26;1756189;81;20231;-88
2022/09/19 08:18:04;;;;;;;;;;;;;;;10.89;100.00;97553.30;1729990;81;25023;-88
2022/09/19 08:20:31;;;;;;;;;;;;;;;10.78;100.00;97551.59;1714431;82;22075;-89
2022/09/19 08:23:00;;;;;;;;;;;;;;;10.72;100.00;97554.73;1732314;81;26036;-88
2022/09/19 08:25:27;;;;;;;;;;;;;;;10.70;100.00;97561.03;1733534;82;24715;-89
2022/09/19 08:27:55;;;;;;;;;;;;;;;10.66;100.00;97557.86;1725491;81;20334;-88
2022/09/19 08:30:22;;;;;;;;;;;;;;;10.65;100.00;97561.42;1731228;82;25882;-88
2022/09/19 08:32:49;;;;;;;;;;;;;;;10.62;100.00;97559.55;1728023;81;21973;-88
2022/09/19 08:35:22;;;;;;;;;;;;;;;10.54;100.00;97563.28;1730792;82;26047;-88
2022/09/19 08:37:50;;;;;;;;;;;;;;;10.43;100.00;97575.47;1725679;82;24519;-88
2022/09/19 08:40:19;;;;;;;;;;;;;;;10.34;100.00;97572.31;1729569;82;20212;-88
2022/09/19 08:42:47;;;;;;;;;;;;;;;10.31;100.00;97573.86;1730877;82;25755;-88
2022/09/19 08:45:31;;;;;;;;;;;;;;;10.27;100.00;97574.24;1726733;82;21991;-88
2022/09/19 08:47:59;;;;;;;;;;;;;;;10.25;100.00;97583.55;1735401;82;26053;-88
2022/09/19 08:50:27;;;;;;;;;;;;;;;10.31;100.00;97575.67;1733352;82;24425;-88
2022/09/19 08:52:55;;;;;;;;;;;;;;;10.33;100.00;97578.50;1729841;82;20239;-88
2022/09/19 08:55:22;;;;;;;;;;;;;;;10.37;100.00;97577.28;1725723;82;24976;-88
2022/09/19 08:58:02;;;;;;;;;;;;;;;10.44;100.00;97577.61;1731553;82;22066;-88
2022/09/19 09:00:39;;;;;;;;;;;;;;;10.59;100.00;97579.42;1706507;82;25957;-88
2022/09/19 09:03:07;;;;;;;;;;;;;;;10.67;100.00;97576.53;1700925;83;24586;-88
2022/09/19 09:05:43;;;;;;;;;;;;;;;10.73;100.00;97579.11;1705181;82;20529;-88
2022/09/19 09:08:27;;;;;;;;;;;;;;;10.73;100.00;97577.33;1718551;82;25078;-88
2022/09/19 09:10:55;;;;;;;;;;;;;;;10.78;100.00;97584.31;1711559;83;21950;-88
2022/09/19 09:13:33;;;;;;;;;;;;;;;10.86;100.00;97581.86;1707902;82;26156;-88
2022/09/19 09:16:02;;;;;;;;;;;;;;;10.87;100.00;97587.45;1709325;82;25184;-88
2022/09/19 09:18:48;;;;;;;;;;;;;;;10.95;100.00;97582.89;1716563;81;20288;-87
2022/09/19 09:21:16;;;;;;;;;;;;;;;11.06;100.00;97586.73;1714301;82;25045;-88
2022/09/19 09:23:44;;;;;;;;;;;;;;;11.12;100.00;97578.36;1707087;82;22086;-88
2022/09/19 09:26:12;;;;;;;;;;;;;;;11.16;100.00;97586.29;1721500;83;25876;-88
2022/09/19 09:28:51;;;;;;;;;;;;;;;11.16;100.00;97582.36;1710845;82;24040;-88
2022/09/19 09:31:25;;;;;;;;;;;;;;;11.27;100.00;97588.81;1703717;82;20263;-88
2022/09/19 09:33:58;;;;;;;;;;;;;;;11.45;100.00;97577.72;1704419;82;26214;-88
2022/09/19 09:36:26;;;;;;;;;;;;;;;11.60;100.00;97578.98;1707202;82;22084;-89
2022/09/19 09:38:56;;;;;;;;;;;;;;;11.66;100.00;97579.77;1663499;83;25921;-87
2022/09/19 09:41:45;;;;;;;;;;;;;;;11.67;100.00;97576.19;1708176;82;25101;-88
2022/09/19 09:44:13;;;;;;;;;;;;;;;11.63;100.00;97587.41;1712489;81;20668;-86
2022/09/19 09:47:01;;;;;;;;;;;;;;;11.63;100.00;97586.09;1714759;83;25585;-89
2022/09/19 09:49:29;;;;;;;;;;;;;;;11.59;100.00;97591.27;1718161;83;21957;-89
2022/09/19 09:52:07;;;;;;;;;;;;;;;11.43;100.00;97604.52;1715140;82;25978;-89
2022/09/19 09:57:45;;;;;;;;;;;;;;;11.21;100.00;97604.22;1677681;84;20313;-89
2022/09/19 10:03:34;;;;;;;;;;;;;;;11.12;100.00;97604.54;1672202;83;22164;-89
2022/09/19 10:06:03;;;;;;;;;;;;;;;11.09;100.00;97602.16;1664212;84;25959;-89
2022/09/19 10:08:40;;;;;;;;;;;;;;;11.10;100.00;97599.91;1679173;83;24596;-89
2022/09/19 10:11:20;;;;;;;;;;;;;;;11.17;100.00;97604.98;1673599;83;20214;-89
2022/09/19 10:13:52;;;;;;;;;;;;;;;11.20;100.00;97611.25;1675782;83;25136;-86
2022/09/19 10:16:19;;;;;;;;;;;;;;;11.20;100.00;97615.66;1678131;83;22066;-86
2022/09/19 10:18:47;;;;;;;;;;;;;;;11.21;100.00;97614.70;1681276;83;27416;-87
2022/09/19 10:21:13;;;;;;;;;;;;;;;11.22;100.00;97615.89;1698446;83;24670;-86
2022/09/19 10:23:46;;;;;;;;;;;;;;;11.27;100.00;97625.48;1660460;85;20833;-87
2022/09/19 10:26:15;;;;;;;;;;;;;;;11.28;100.00;97625.84;1680502;84;25423;-86
2022/09/19 10:28:43;;;;;;;;;;;;;;;11.23;100.00;97628.50;1677244;84;22148;-88
2022/09/19 10:31:15;;;;;;;;;;;;;;;11.17;100.00;97634.26;1679385;85;26016;-86
2022/09/19 10:33:47;;;;;;;;;;;;;;;11.11;100.00;97636.92;1697374;83;24561;-86
2022/09/19 10:36:20;;;;;;;;;;;;;;;11.05;100.00;97643.98;1687637;83;20643;-86
2022/09/19 10:38:58;;;;;;;;;;;;;;;10.95;100.00;97645.72;1683049;83;25135;-86
2022/09/19 10:41:25;;;;;;;;;;;;;;;10.90;100.00;97649.20;1671018;84;22069;-86
2022/09/19 10:43:53;;;;;;;;;;;;;;;10.90;100.00;97648.72;1671385;84;26657;-86
2022/09/19 10:46:22;;;;;;;;;;;;;;;11.01;100.00;97646.98;1675593;84;24459;-87
2022/09/19 10:49:02;;;;;;;;;;;;;;;11.07;100.00;97648.62;1670139;84;20208;-87
2022/09/19 10:51:41;;;;;;;;;;;;;;;11.13;100.00;97654.62;1672099;84;25002;-86
2022/09/19 10:54:11;;;;;;;;;;;;;;;11.20;100.00;97651.84;1684167;83;21988;-86
2022/09/19 10:56:39;;;;;;;;;;;;;;;11.33;100.00;97652.95;1728208;82;26157;-87
2022/09/19 10:59:17;;;;;;;;;;;;;;;11.40;100.00;97659.30;1719523;82;25240;-87
2022/09/19 11:02:01;;;;;;;;;;;;;;;11.46;100.00;97654.02;1696539;83;20553;-86
2022/09/19 11:04:27;;;;;;;;;;;;;;;11.51;100.00;97655.79;1687685;83;25044;-86
2022/09/19 11:07:01;;;;;;;;;;;;;;;11.57;100.00;97653.45;1715752;82;21924;-86
2022/09/19 11:09:29;;;;;;;;;;;;;;;11.67;100.00;97650.88;1706293;82;26141;-86
2022/09/19 11:12:05;;;;;;;;;;;;;;;11.81;100.00;97645.77;1702055;82;24486;-86
2022/09/19 11:14:35;;;;;;;;;;;;;;;11.89;100.00;97640.19;1695710;83;20218;-86
2022/09/19 11:17:20;;;;;;;;;;;;;;;11.96;100.00;97632.14;1718135;82;24961;-86
2022/09/19 11:20:05;;;;;;;;;;;;;;;12.01;100.00;97639.59;1718737;82;21963;-86
2022/09/19 11:22:36;;;;;;;;;;;;;;;11.97;100.00;97642.15;1699575;83;26046;-86
2022/09/19 11:25:06;;;;;;;;;;;;;;;11.85;100.00;97651.92;1699645;83;24457;-86
2022/09/19 11:27:52;;;;;;;;;;;;;;;11.66;100.00;97664.95;1706649;83;20257;-87
2022/09/19 11:30:21;;;;;;;;;;;;;;;11.41;100.00;97672.75;1706621;83;25783;-87
2022/09/19 11:32:53;;;;;;;;;;;;;;;11.25;100.00;97675.85;1711689;82;22854;-87
2022/09/19 11:35:27;;;;;;;;;;;;;;;11.15;100.00;97675.45;1693136;83;26155;-87
2022/09/19 11:38:10;;;;;;;;;;;;;;;11.07;100.00;97681.34;1708736;83;24465;-87
2022/09/19 11:40:44;;;;;;;;;;;;;;;11.06;100.00;97686.23;1708090;82;20639;-86
2022/09/19 11:43:15;;;;;;;;;;;;;;;11.12;100.00;97672.62;1707275;82;24946;-87
2022/09/19 11:45:53;;;;;;;;;;;;;;;11.20;100.00;97680.65;1695529;83;20217;-91
2022/09/19 11:48:31;;;;;;;;;;;;;;;11.33;100.00;97683.08;1719739;82;22600;-91
2022/09/19 11:51:06;;;;;;;;;;;;;;;11.39;100.00;97686.96;1717008;83;25228;-91
2022/09/19 11:53:31;;;;;;;;;;;;;;;11.47;100.00;97687.12;1701673;82;20488;-90
2022/09/19 11:56:17;;;;;;;;;;;;;;;11.54;100.00;97689.58;1687938;83;25853;-90
2022/09/19 11:58:57;;;;;;;;;;;;;;;11.65;100.00;97686.39;1695841;83;21988;-91
2022/09/19 12:01:31;;;;;;;;;;;;;;;11.83;100.00;97683.17;1697016;83;25932;-91
2022/09/19 12:04:05;;;;;;;;;;;;;;;11.98;100.00;97689.22;1693065;83;25147;-90
2022/09/19 12:06:46;;;;;;;;;;;;;;;12.12;100.00;97682.27;1691897;83;20227;-90
2022/09/19 12:09:22;;;;;;;;;;;;;;;12.26;100.00;97691.56;1696400;83;25043;-90
2022/09/19 12:11:56;;;;;;;;;;;;;;;12.38;100.00;97698.84;1699311;83;22036;-91
2022/09/19 12:14:28;;;;;;;;;;;;;;;12.39;100.00;97694.73;1688831;83;25971;-91
2022/09/19 12:16:55;;;;;;;;;;;;;;;12.33;100.00;97707.60;1694246;83;24378;-90
2022/09/19 12:19:33;;;;;;;;;;;;;;;12.21;100.00;97728.34;1683877;83;20223;-91
2022/09/19 12:22:01;;;;;;;;;;;;;;;12.05;100.00;97725.76;1695874;84;24942;-91
2022/09/19 12:27:33;;;;;;;;;;;;;;;11.88;100.00;97726.86;1685151;83;26078;-87
2022/09/19 12:30:06;;;;;;;;;;;;;;;11.90;100.00;97722.30;1694169;83;24572;-87
2022/09/19 12:32:47;;;;;;;;;;;;;;;11.94;100.00;97711.44;1671375;83;22085;-86
2022/09/19 12:35:17;;;;;;;;;;;;;;;11.94;100.00;97714.54;1696506;84;25083;-87
2022/09/19 12:37:45;;;;;;;;;;;;;;;11.99;100.00;97704.48;1695509;83;21965;-86
2022/09/19 12:40:16;;;;;;;;;;;;;;;12.04;100.00;97707.05;1692772;83;26041;-87
2022/09/19 12:42:50;;;;;;;;;;;;;;;12.20;100.00;97710.47;1696128;83;24587;-86
2022/09/19 12:45:18;;;;;;;;;;;;;;;12.26;100.00;97707.78;1694426;83;20187;-87
2022/09/19 12:48:01;;;;;;;;;;;;;;;12.30;100.00;97706.06;1696656;83;25043;-87
2022/09/19 12:50:32;;;;;;;;;;;;;;;12.34;100.00;97711.38;1696844;83;22078;-86
2022/09/19 12:53:20;;;;;;;;;;;;;;;12.41;100.00;97714.30;1694111;83;26205;-86
2022/09/19 12:55:51;;;;;;;;;;;;;;;12.40;100.00;97716.56;1687906;83;24442;-87
2022/09/19 12:58:18;;;;;;;;;;;;;;;12.37;100.00;97722.09;1690113;83;20495;-87
2022/09/19 13:00:45;;;;;;;;;;;;;;;12.37;100.00;97715.06;1694125;83;24898;-87
2022/09/19 13:03:23;;;;;;;;;;;;;;;12.36;100.00;97713.39;1690591;83;22741;-86
2022/09/19 13:05:56;;;;;;;;;;;;;;;12.38;100.00;97714.58;1699938;83;26043;-87
2022/09/19 13:08:24;;;;;;;;;;;;;;;12.40;100.00;97720.02;1698379;83;24590;-87
2022/09/19 13:10:54;;;;;;;;;;;;;;;12.41;100.00;97715.61;1690795;82;20225;-87
2022/09/19 13:13:34;;;;;;;;;;;;;;;12.45;100.00;97717.81;1690671;83;25392;-87
2022/09/19 13:16:01;;;;;;;;;;;;;;;12.51;100.00;97719.06;1699479;84;21927;-86